04:44
Airports
History
Links
Donate
Help keep this website running!
PayPal
Bitcoin
This page is community maintained. The information is intended for PC simulator navigation or reference.
Always use approved charts for navigation.
VEAN
ALONG
ALONG (VEAN)

4
Lat/Lng:28° 10' 31.14" N / 94° 48' 7.33" E
28.175316 / 94.802035
Elevation:900'ft / 274mMSL
ID / ICAO:VEAN
Runways:1
Longest:05-23
Grass 274m / 898ft
Nearby Weather04:30 GMT 2017-12-12
Nearby weather at VEMN, DIBRUGARH located 49.5 nautical miles from VEAN
Altimeter: 29.97
Visibility: 3.1 statute miles
Wind: 4 knots (from 150°)
Temp: 26°c / 79°f
Humidity: 54.1%

METAR: VEMN 120430Z 15004KT 5000 HZ FEW020 SCT100 26/16 Q1015 NOSIG

(Powered by phpweather)
Nearby VORs <50NM
Nearby NDBs
Runway 05 / 23
Dimensions:273.6 x 29m 898' x 95'ft
Surface:Grass
Runway 05 [A]Runway 23 [B]
Heading:053°TH 233°TH
Lat:
Lng:
28° 10' 28.44"N
94° 48' 3.21"E
28° 10' 33.83"N
94° 48' 11.44"E
User Notes and Comments
28° 10' 31.14" N / 94° 48' 7.33" E
Distance To
Airport ID:
Nearby Airports
(C) DIBRUGARH 49.5 NM
VEMN ( WX ) SSE 164°
(U) MACHUKA 50.8 NM
VE67 NW 305°
(U) CHABUA 52.9 NM
VECA SSE 158°
(U) SOOKERATING 63.7 NM
VE24 SE 132°
(C) ZERO 72.0 NM
VEZO SW 235°
(C) LILABARI 74.5 NM
VELR ( WX ) SW 215°
(C) Linzhi Nyingchi 82.7 NM
ZUNZ NNW 339°
VFR Chart
Flight Planning at SkyVector.com